createdAt,value
2019-01-16T00:00:46.771Z,11.19
2019-01-16T00:03:26.430Z,11.21
2019-01-16T00:06:29.669Z,11.19
2019-01-16T00:09:16.033Z,11.19
2019-01-16T00:12:04.387Z,11.19
2019-01-16T00:14:43.345Z,11.15
2019-01-16T00:17:31.376Z,11.15
2019-01-16T00:20:08.277Z,11.16
2019-01-16T00:23:05.365Z,11.17
2019-01-16T00:25:48.087Z,11.22
2019-01-16T00:28:34.516Z,11.25
2019-01-16T00:31:53.781Z,11.25
2019-01-16T00:34:44.653Z,11.23
2019-01-16T00:37:35.605Z,11.23
2019-01-16T00:40:23.675Z,11.29
2019-01-16T00:43:03.519Z,11.28
2019-01-16T00:46:01.418Z,11.31
2019-01-16T00:48:55.223Z,11.31
2019-01-16T00:51:46.060Z,11.29
2019-01-16T00:54:36.583Z,11.32
2019-01-16T00:57:27.439Z,11.25
2019-01-16T01:00:18.811Z,11.29
2019-01-16T01:03:05.536Z,11.23
2019-01-16T01:05:51.974Z,11.19
2019-01-16T01:08:48.827Z,11.15
2019-01-16T01:11:35.515Z,11.08
2019-01-16T01:14:26.546Z,11.10
2019-01-16T01:17:26.492Z,11.13
2019-01-16T01:20:17.524Z,11.11
2019-01-16T01:23:17.723Z,11.06
2019-01-16T01:26:11.547Z,11.07
2019-01-16T01:29:05.355Z,11.08
2019-01-16T01:31:43.316Z,11.11
2019-01-16T01:34:40.243Z,11.08
2019-01-16T01:37:43.349Z,11.00
2019-01-16T01:40:46.474Z,10.98
2019-01-16T01:43:29.899Z,11.02
2019-01-16T01:46:15.586Z,11.02
2019-01-16T01:48:58.294Z,11.02
2019-01-16T01:51:44.965Z,11.02
2019-01-16T01:54:38.751Z,11.00
2019-01-16T01:57:20.292Z,10.97
2019-01-16T02:00:09.260Z,11.01
2019-01-16T02:03:03.359Z,11.00
2019-01-16T02:05:51.402Z,11.02
2019-01-16T02:08:57.506Z,10.98
2019-01-16T02:11:54.675Z,11.00
2019-01-16T02:14:45.780Z,10.98
2019-01-16T02:17:42.655Z,10.92
2019-01-16T02:20:30.748Z,10.94
2019-01-16T02:23:17.500Z,10.91
2019-01-16T02:26:05.509Z,10.92
2019-01-16T02:28:56.255Z,10.94
2019-01-16T02:31:47.331Z,10.95
2019-01-16T02:34:42.063Z,10.91
2019-01-16T02:37:28.469Z,10.92
2019-01-16T02:40:25.226Z,10.94
2019-01-16T02:43:03.310Z,10.94
2019-01-16T02:45:54.319Z,11.00
2019-01-16T02:48:55.665Z,11.00
2019-01-16T02:51:38.067Z,11.04
2019-01-16T02:54:24.459Z,11.03
2019-01-16T02:57:15.230Z,11.03
2019-01-16T02:59:51.244Z,11.03
2019-01-16T03:02:39.218Z,10.99
2019-01-16T03:05:31.502Z,10.99
2019-01-16T03:08:16.023Z,10.97
2019-01-16T03:11:02.664Z,11.00
2019-01-16T03:13:53.849Z,11.02
2019-01-16T03:16:53.750Z,11.00
2019-01-16T03:19:47.752Z,11.01
2019-01-16T03:22:35.762Z,11.03
2019-01-16T03:25:31.377Z,10.38
2019-01-16T03:28:11.659Z,10.99
2019-01-16T03:30:58.170Z,11.01
2019-01-16T03:33:44.637Z,11.03
2019-01-16T03:36:44.576Z,10.97
2019-01-16T03:39:35.697Z,10.95
2019-01-16T03:42:22.167Z,10.91
2019-01-16T03:45:10.119Z,10.86
2019-01-16T03:48:01.176Z,10.87
2019-01-16T03:50:52.148Z,10.86
2019-01-16T03:53:38.625Z,10.78
2019-01-16T03:56:35.414Z,10.74
2019-01-16T03:59:22.054Z,10.70
2019-01-16T04:02:28.119Z,10.67
2019-01-16T04:05:04.038Z,10.64
2019-01-16T04:07:57.829Z,10.66
2019-01-16T04:10:51.956Z,10.60
2019-01-16T04:13:38.369Z,10.59
2019-01-16T04:16:32.402Z,10.55
2019-01-16T04:19:23.400Z,10.58
2019-01-16T04:22:14.417Z,10.56
2019-01-16T04:25:17.650Z,10.58
2019-01-16T04:28:04.205Z,10.57
2019-01-16T04:30:51.307Z,10.56
2019-01-16T04:33:37.936Z,10.55
2019-01-16T04:36:25.959Z,10.55
2019-01-16T04:39:12.608Z,10.56
2019-01-16T04:42:09.702Z,10.59
2019-01-16T04:44:50.717Z,10.62
2019-01-16T04:47:34.037Z,10.67
2019-01-16T04:50:20.685Z,10.59
2019-01-16T04:53:14.439Z,10.50
2019-01-16T04:56:02.450Z,10.68
2019-01-16T04:58:49.118Z,10.73
2019-01-16T05:01:37.155Z,10.72
2019-01-16T05:04:35.448Z,10.74
2019-01-16T05:07:21.817Z,10.76
2019-01-16T05:10:13.700Z,10.79
2019-01-16T05:13:03.837Z,10.81
2019-01-16T05:15:48.853Z,10.86
2019-01-16T05:18:35.179Z,10.86
2019-01-16T05:21:23.478Z,10.86
2019-01-16T05:24:03.923Z,10.85
2019-01-16T05:27:09.933Z,10.85
2019-01-16T05:29:52.269Z,10.85
2019-01-16T05:32:39.014Z,10.81
2019-01-16T05:35:25.798Z,10.83
2019-01-16T05:38:16.836Z,10.81
2019-01-16T05:41:07.400Z,10.80
2019-01-16T05:44:01.827Z,10.77
2019-01-16T05:46:49.518Z,10.76
2019-01-16T05:49:46.584Z,10.75
2019-01-16T05:52:32.905Z,10.79
2019-01-16T05:55:19.517Z,10.82
2019-01-16T05:58:04.653Z,10.84
2019-01-16T06:00:51.386Z,10.84
2019-01-16T06:03:57.631Z,10.86
2019-01-16T06:06:44.165Z,10.86
2019-01-16T06:09:30.773Z,10.88
2019-01-16T06:12:21.671Z,10.87
2019-01-16T06:15:02.523Z,10.86
2019-01-16T06:18:03.173Z,10.88
2019-01-16T06:21:00.138Z,10.87
2019-01-16T06:23:46.596Z,10.90
2019-01-16T06:26:28.863Z,10.90
2019-01-16T06:29:15.660Z,10.90
2019-01-16T12:14:10.466Z,10.97
2019-01-16T12:17:08.839Z,10.91
2019-01-16T17:17:57.501Z,9.87
2019-01-16T17:20:44.476Z,9.79
2019-01-16T17:23:51.759Z,9.79
2019-01-16T17:26:38.216Z,9.76
2019-01-16T17:29:38.539Z,9.84
2019-01-16T17:32:35.780Z,9.80
2019-01-16T17:35:40.391Z,9.88
2019-01-16T17:38:31.391Z,9.89
2019-01-16T17:41:25.259Z,9.89
2019-01-16T17:44:14.814Z,9.91
2019-01-16T17:47:02.869Z,9.90
2019-01-16T17:49:57.673Z,9.83
2019-01-16T17:53:03.732Z,9.85
2019-01-16T17:56:00.809Z,9.80
2019-01-16T17:58:59.779Z,9.78
2019-01-16T18:01:46.629Z,9.77
2019-01-16T18:04:44.049Z,9.75
2019-01-16T18:07:34.959Z,9.74
2019-01-16T18:10:23.410Z,9.72
2019-01-16T20:49:58.847Z,9.94
2019-01-16T20:52:47.496Z,9.99
2019-01-16T20:55:24.379Z,9.97
2019-01-16T20:58:10.958Z,10.02
2019-01-16T21:01:10.975Z,10.10
2019-01-16T21:03:55.183Z,10.10
2019-01-16T21:06:40.074Z,10.08
2019-01-16T21:09:20.092Z,10.09
2019-01-16T21:12:14.509Z,10.06
2019-01-16T21:15:11.332Z,10.10
2019-01-16T21:17:57.218Z,10.06
2019-01-16T21:20:54.502Z,10.11
2019-01-16T21:23:45.513Z,10.11
2019-01-16T21:26:32.037Z,10.15
2019-01-16T21:29:16.721Z,10.10
2019-01-16T21:32:06.428Z,10.09
2019-01-16T21:34:57.074Z,10.05
2019-01-16T21:37:51.023Z,10.07
2019-01-16T21:40:37.763Z,10.14
2019-01-16T21:43:28.840Z,10.18
2019-01-16T21:46:23.268Z,10.14
2019-01-16T21:49:29.250Z,10.11
2019-01-16T21:52:20.470Z,10.12
2019-01-16T21:55:14.511Z,10.11
2019-01-16T21:58:02.808Z,10.10
2019-01-16T22:00:44.969Z,10.13
2019-01-16T22:03:20.738Z,10.12
2019-01-16T22:06:06.379Z,10.16
2019-01-16T22:09:03.214Z,10.14
2019-01-16T22:12:02.406Z,10.14
2019-01-16T22:14:54.600Z,10.12
2019-01-16T22:17:46.055Z,10.10
2019-01-16T22:20:29.408Z,10.05
2019-01-16T22:23:16.254Z,10.02
2019-01-16T22:26:04.843Z,10.04
2019-01-16T22:28:43.574Z,10.04
2019-01-16T22:31:46.724Z,10.00
2019-01-16T22:34:35.122Z,10.02
2019-01-16T22:37:38.891Z,10.02
2019-01-16T22:40:23.701Z,10.06
2019-01-16T22:43:13.393Z,10.08
2019-01-16T22:46:18.499Z,10.03
2019-01-16T23:00:40.269Z,10.17
2019-01-16T23:02:03.984Z,10.16
2019-01-16T23:02:23.753Z,10.06
2019-01-16T23:05:47.861Z,10.17
2019-01-16T23:08:32.302Z,10.12
2019-01-16T23:11:46.971Z,10.10
2019-01-16T23:14:39.680Z,10.12
2019-01-16T23:17:50.469Z,10.12
2019-01-16T23:20:38.789Z,10.13
2019-01-16T23:23:53.995Z,10.08
2019-01-16T23:27:40.033Z,10.03
2019-01-16T23:34:15.178Z,10.00
2019-01-16T23:43:51.636Z,9.82
2019-01-16T23:46:52.977Z,9.77
2019-01-16T23:50:38.648Z,9.96
2019-01-16T23:53:27.709Z,9.70
2019-01-16T23:56:31.579Z,9.72
